createdAt,value
2023-01-02T00:00:50.937Z,21.17
2023-01-02T00:03:30.288Z,23.67
2023-01-02T00:06:06.492Z,26.13
2023-01-02T00:08:37.389Z,27.35
2023-01-02T00:11:08.866Z,24.90
2023-01-02T00:13:39.579Z,20.67
2023-01-02T00:16:12.867Z,26.83
2023-01-02T00:18:44.069Z,21.77
2023-01-02T00:21:17.824Z,24.30
2023-01-02T00:23:48.778Z,23.38
2023-01-02T00:26:20.307Z,22.50
2023-01-02T00:28:51.063Z,25.45
2023-01-02T00:31:22.296Z,25.52
2023-01-02T00:33:54.214Z,27.45
2023-01-02T00:36:28.093Z,47.28
2023-01-02T00:38:59.178Z,31.45
2023-01-02T00:41:30.214Z,34.90
2023-01-02T00:44:01.320Z,30.42
2023-01-02T00:46:32.443Z,23.83
2023-01-02T00:51:36.858Z,23.67
2023-01-02T00:54:07.715Z,25.25
2023-01-02T00:56:38.795Z,22.77
2023-01-02T00:59:09.781Z,28.33
2023-01-02T01:01:41.076Z,22.80
2023-01-02T01:04:12.018Z,25.13
2023-01-02T01:06:46.169Z,27.23
2023-01-02T01:09:18.327Z,26.67
2023-01-02T01:11:49.414Z,30.20
2023-01-02T01:14:20.225Z,27.33
2023-01-02T01:16:51.378Z,26.40
2023-01-02T01:19:22.296Z,27.52
2023-01-02T01:21:55.987Z,25.70
2023-01-02T01:24:26.966Z,26.10
2023-01-02T01:26:58.103Z,29.30
2023-01-02T01:29:28.836Z,29.92
2023-01-02T01:32:01.049Z,29.42
2023-01-02T01:34:32.285Z,27.90
2023-01-02T01:37:06.077Z,30.95
2023-01-02T01:39:36.806Z,31.63
2023-01-02T01:42:08.202Z,34.58
2023-01-02T01:44:50.422Z,25.58
2023-01-02T01:47:30.943Z,32.28
2023-01-02T01:50:06.323Z,29.45
2023-01-02T01:52:44.140Z,26.02
2023-01-02T01:55:18.841Z,25.88
2023-01-02T01:57:54.629Z,31.58
2023-01-02T02:00:25.997Z,29.48
2023-01-02T02:03:03.725Z,27.15
2023-01-02T02:05:36.599Z,24.23
2023-01-02T02:08:16.488Z,33.92
2023-01-02T02:10:48.140Z,31.13
2023-01-02T02:13:20.035Z,33.45
2023-01-02T02:16:05.396Z,41.78
2023-01-02T02:18:54.089Z,29.50
2023-01-02T02:21:44.045Z,26.25
2023-01-02T02:24:46.141Z,29.48
2023-01-02T02:27:32.173Z,26.83
2023-01-02T02:30:18.924Z,25.42
2023-01-02T02:33:10.885Z,31.08
2023-01-02T02:35:51.620Z,29.55
2023-01-02T02:38:35.510Z,21.17
2023-01-02T02:41:17.257Z,27.85
2023-01-02T02:43:56.426Z,24.88
2023-01-02T02:46:34.623Z,25.48
2023-01-02T02:49:10.985Z,29.45
2023-01-02T02:51:51.141Z,28.83
2023-01-02T02:54:25.914Z,24.70
2023-01-02T02:56:58.836Z,32.13
2023-01-02T02:59:30.854Z,29.58
2023-01-02T03:02:05.715Z,28.33
2023-01-02T03:04:36.637Z,30.77
2023-01-02T03:07:19.815Z,31.00
2023-01-02T03:09:59.558Z,29.60
2023-01-02T03:12:43.959Z,24.33
2023-01-02T03:15:24.818Z,28.92
2023-01-02T03:20:41.115Z,26.48
2023-01-02T03:23:18.305Z,33.13
2023-01-02T03:25:52.274Z,27.15
2023-01-02T03:28:26.657Z,32.40
2023-01-02T03:31:00.760Z,31.35
2023-01-02T03:33:38.831Z,29.55
2023-01-02T03:36:15.235Z,28.90
2023-01-02T03:38:55.364Z,33.08
2023-01-02T03:41:28.765Z,28.98
2023-01-02T03:44:03.623Z,35.97
2023-01-02T03:46:38.260Z,35.63
2023-01-02T03:49:17.587Z,34.50
2023-01-02T03:51:51.644Z,30.52
2023-01-02T03:54:24.133Z,33.97
2023-01-02T03:57:00.735Z,32.55
2023-01-02T03:59:39.616Z,29.70
2023-01-02T04:02:16.989Z,36.58
2023-01-02T04:04:56.750Z,36.22
2023-01-02T04:07:32.889Z,30.33
2023-01-02T04:10:05.555Z,31.35
2023-01-02T04:12:42.123Z,33.05
2023-01-02T04:15:15.862Z,31.27
2023-01-02T04:17:50.704Z,31.85
2023-01-02T04:20:26.973Z,33.13
2023-01-02T04:23:03.887Z,71.03
2023-01-02T04:25:40.036Z,37.28
2023-01-02T04:28:15.632Z,44.22
2023-01-02T04:30:53.089Z,41.10
2023-01-02T04:33:26.985Z,43.30
2023-01-02T04:36:01.268Z,36.00
2023-01-02T04:38:31.960Z,30.02
2023-01-02T04:41:03.334Z,33.58
2023-01-02T04:46:04.894Z,36.25
2023-01-02T04:48:35.736Z,65.18
2023-01-02T04:51:09.654Z,47.33
2023-01-02T04:53:40.350Z,60.80
2023-01-02T04:56:11.678Z,39.72
2023-01-02T05:01:14.342Z,29.38
2023-01-02T05:03:47.389Z,32.63
2023-01-02T05:06:21.167Z,33.13
2023-01-02T05:08:52.112Z,37.55
2023-01-02T05:11:23.869Z,44.58
2023-01-02T05:13:55.733Z,36.22
2023-01-02T05:16:26.964Z,38.17
2023-01-02T05:24:14.533Z,46.72
2023-01-02T05:26:46.123Z,47.53
2023-01-02T05:29:16.940Z,49.35
2023-01-02T05:31:48.466Z,51.03
2023-01-02T05:34:20.378Z,55.47
2023-01-02T05:36:54.233Z,49.15
2023-01-02T05:39:25.531Z,42.20
2023-01-02T05:41:56.599Z,39.20
2023-01-02T05:44:27.302Z,44.20
2023-01-02T05:46:58.451Z,47.80
2023-01-02T05:49:29.208Z,63.53
2023-01-02T05:52:02.981Z,39.00
2023-01-02T05:54:33.736Z,33.72
2023-01-02T05:57:04.842Z,53.95
2023-01-02T05:59:36.619Z,38.95
2023-01-02T06:02:08.021Z,33.28
2023-01-02T06:07:13.949Z,30.42
2023-01-02T06:09:45.975Z,39.58
2023-01-02T06:12:17.096Z,32.08
2023-01-02T06:14:47.898Z,38.50
2023-01-02T06:17:19.031Z,36.65
2023-01-02T06:19:53.952Z,39.03
2023-01-02T06:22:28.693Z,47.13
2023-01-02T06:24:59.409Z,53.88
2023-01-02T06:27:30.466Z,53.58
2023-01-02T06:30:01.238Z,47.33
2023-01-02T06:32:33.192Z,44.33
2023-01-02T06:35:03.900Z,46.15
2023-01-02T06:37:37.659Z,39.90
2023-01-02T06:40:09.809Z,34.88
2023-01-02T06:42:41.853Z,34.25
2023-01-02T06:45:14.400Z,40.95
2023-01-02T06:47:45.592Z,38.13
2023-01-02T06:50:16.321Z,38.25
2023-01-02T06:52:50.066Z,38.33
2023-01-02T06:55:22.351Z,38.47
2023-01-02T06:57:53.462Z,49.58
2023-01-02T07:00:24.650Z,49.40
2023-01-02T07:02:55.737Z,52.22
2023-01-02T07:05:26.558Z,45.35
2023-01-02T07:08:00.693Z,52.58
2023-01-02T07:10:31.539Z,43.63
2023-01-02T07:13:02.839Z,45.92
2023-01-02T07:15:35.109Z,50.67
2023-01-02T07:18:06.830Z,48.10
2023-01-02T07:20:38.214Z,44.28
2023-01-02T07:23:12.539Z,53.47
2023-01-02T07:25:44.717Z,46.22
2023-01-02T07:28:16.080Z,50.92
2023-01-02T07:30:47.757Z,38.45
2023-01-02T07:33:19.497Z,32.47
2023-01-02T07:35:51.135Z,30.38
2023-01-02T07:38:24.986Z,37.40
2023-01-02T07:40:56.472Z,31.55
2023-01-02T07:43:29.281Z,35.53
2023-01-02T07:46:06.320Z,36.75
2023-01-02T07:48:37.732Z,50.10
2023-01-02T07:51:11.251Z,55.33
2023-01-02T07:53:45.114Z,43.97
2023-01-02T07:56:16.189Z,51.80
2023-01-02T07:58:48.224Z,51.47
2023-01-02T08:01:19.203Z,65.78
2023-01-02T08:03:51.085Z,47.88
2023-01-02T08:06:23.066Z,50.95
2023-01-02T08:08:57.543Z,39.92
2023-01-02T08:11:28.482Z,40.70
2023-01-02T08:14:00.405Z,34.83
2023-01-02T08:16:31.226Z,44.97
2023-01-02T08:19:02.496Z,39.72
2023-01-02T08:21:33.547Z,44.70
2023-01-02T08:24:08.511Z,30.30
2023-01-02T08:26:40.149Z,34.92
2023-01-02T08:29:11.893Z,51.67
2023-01-02T08:31:44.000Z,34.00
2023-01-02T08:34:17.781Z,34.80
2023-01-02T08:36:48.769Z,32.92
2023-01-02T08:39:22.749Z,30.60
2023-01-02T08:41:53.444Z,39.65
2023-01-02T08:44:24.482Z,37.13
2023-01-02T08:46:55.253Z,56.92
2023-01-02T08:49:26.415Z,63.45
2023-01-02T08:51:57.912Z,65.07
2023-01-02T08:54:31.755Z,83.43
2023-01-02T08:57:02.512Z,67.60
2023-01-02T08:59:33.686Z,55.47
2023-01-02T09:04:35.783Z,63.10
2023-01-02T09:07:07.167Z,56.97
2023-01-02T09:09:41.232Z,54.40
2023-01-02T09:12:12.776Z,43.42
2023-01-02T09:14:44.349Z,44.35
2023-01-02T09:17:15.045Z,47.50
2023-01-02T09:19:46.134Z,41.83
2023-01-02T09:22:17.291Z,48.85
2023-01-02T09:24:51.133Z,40.88
2023-01-02T09:27:21.879Z,48.97
2023-01-02T09:29:54.111Z,35.00
2023-01-02T09:32:25.135Z,41.90
2023-01-02T09:34:56.221Z,47.55
2023-01-02T09:37:28.093Z,34.50
2023-01-02T09:40:01.953Z,36.25
2023-01-02T09:42:34.092Z,41.50
2023-01-02T09:45:09.054Z,39.70
2023-01-02T09:47:43.605Z,34.92
2023-01-02T09:50:19.789Z,36.22
2023-01-02T09:52:58.370Z,30.30
2023-01-02T09:55:41.322Z,48.78
2023-01-02T09:58:22.407Z,42.28
2023-01-02T10:00:54.478Z,72.38
2023-01-02T10:03:35.126Z,44.15
2023-01-02T10:06:19.629Z,42.25
2023-01-02T10:09:02.409Z,28.55
2023-01-02T10:11:51.182Z,28.90
2023-01-02T10:14:42.141Z,31.63
2023-01-02T10:17:18.329Z,33.58
2023-01-02T10:19:55.642Z,28.50
2023-01-02T10:22:33.875Z,29.02
2023-01-02T10:25:09.687Z,30.92
2023-01-02T10:27:50.218Z,35.83
2023-01-02T10:30:23.795Z,30.02
2023-01-02T10:33:01.444Z,27.63
2023-01-02T10:35:39.834Z,28.48
2023-01-02T10:38:14.780Z,35.83
2023-01-02T10:40:48.786Z,31.55
2023-01-02T10:43:23.185Z,44.22
2023-01-02T10:45:53.900Z,39.47
2023-01-02T10:48:29.982Z,37.70
2023-01-02T10:51:05.566Z,36.63
2023-01-02T10:53:38.839Z,36.28
2023-01-02T10:56:17.626Z,30.10
2023-01-02T10:58:53.601Z,28.08
2023-01-02T11:01:26.201Z,24.77
2023-01-02T11:04:13.989Z,28.95
2023-01-02T11:06:55.175Z,24.95
2023-01-02T11:09:28.410Z,30.55
2023-01-02T11:12:01.715Z,28.55
2023-01-02T11:14:39.363Z,30.15
2023-01-02T11:17:14.940Z,28.98
2023-01-02T11:19:48.015Z,30.52
2023-01-02T11:22:21.926Z,28.70
2023-01-02T11:25:01.377Z,30.85
2023-01-02T11:27:34.629Z,40.67
2023-01-02T11:30:11.271Z,35.58
2023-01-02T11:32:43.815Z,43.78
2023-01-02T11:35:35.328Z,33.53
2023-01-02T11:38:06.338Z,42.55
2023-01-02T11:40:37.647Z,34.63
2023-01-02T11:43:25.999Z,30.25
2023-01-02T11:45:59.943Z,28.38
2023-01-02T11:48:30.737Z,33.05
2023-01-02T11:51:01.791Z,33.47
2023-01-02T11:53:40.327Z,34.65
2023-01-02T11:56:17.391Z,27.80
2023-01-02T11:59:00.266Z,38.97
2023-01-02T12:01:44.419Z,41.40
2023-01-02T12:04:17.157Z,33.50
2023-01-02T12:07:14.184Z,30.35
2023-01-02T12:09:55.267Z,29.17
2023-01-02T12:12:44.003Z,32.20
2023-01-02T12:15:39.881Z,31.08
2023-01-02T12:18:27.430Z,28.65
2023-01-02T12:21:04.945Z,33.38
2023-01-02T12:24:01.192Z,33.70
2023-01-02T12:26:37.779Z,33.05
2023-01-02T12:29:48.242Z,29.33
2023-01-02T12:33:01.442Z,25.88
2023-01-02T12:35:51.941Z,24.20
2023-01-02T12:38:33.514Z,23.63
2023-01-02T12:41:18.526Z,28.90
2023-01-02T12:44:11.170Z,30.25
2023-01-02T12:47:19.744Z,22.13
2023-01-02T12:50:20.271Z,25.55
2023-01-02T12:53:08.063Z,21.65
2023-01-02T12:55:51.503Z,22.95
2023-01-02T12:58:51.633Z,23.20
2023-01-02T13:01:29.477Z,35.30
2023-01-02T13:04:06.396Z,21.00
2023-01-02T13:06:50.021Z,21.15
2023-01-02T13:09:31.532Z,21.17
2023-01-02T13:12:10.359Z,25.45
2023-01-02T13:14:45.855Z,38.88
2023-01-02T13:17:39.773Z,34.75
2023-01-02T13:20:20.798Z,51.80
2023-01-02T13:22:59.906Z,44.33
2023-01-02T13:25:35.510Z,54.20
2023-01-02T13:28:08.221Z,48.70
2023-01-02T13:30:48.023Z,55.42
2023-01-02T13:33:30.885Z,41.38
2023-01-02T13:36:05.320Z,45.20
2023-01-02T13:38:39.700Z,29.98
2023-01-02T13:41:18.797Z,24.67
2023-01-02T13:43:54.630Z,22.95
2023-01-02T13:49:24.971Z,27.42
2023-01-02T13:52:02.754Z,30.92
2023-01-02T13:54:39.611Z,30.02
2023-01-02T13:57:35.240Z,34.25
2023-01-02T14:00:08.687Z,32.67
2023-01-02T14:02:44.162Z,32.20
2023-01-02T14:05:44.848Z,33.72
2023-01-02T14:11:01.830Z,33.15
2023-01-02T14:13:38.725Z,38.88
2023-01-02T14:16:39.748Z,34.30
2023-01-02T14:19:23.211Z,30.13
2023-01-02T14:21:58.181Z,33.88
2023-01-02T14:24:35.716Z,30.92
2023-01-02T14:27:09.254Z,32.67
2023-01-02T14:29:53.282Z,29.13
2023-01-02T14:32:30.106Z,36.47
2023-01-02T14:35:02.377Z,67.68
2023-01-02T14:37:41.073Z,87.15
2023-01-02T14:40:16.042Z,126.35
2023-01-02T14:43:01.976Z,99.78
2023-01-02T14:45:37.326Z,134.60
2023-01-02T14:48:12.669Z,70.05
2023-01-02T14:50:44.863Z,39.40
2023-01-02T14:53:23.536Z,34.20
2023-01-02T14:56:01.530Z,35.00
2023-01-02T14:58:39.389Z,31.30
2023-01-02T15:01:41.778Z,55.80
2023-01-02T15:04:21.563Z,36.28
2023-01-02T15:07:04.676Z,32.05
2023-01-02T15:09:44.529Z,47.67
2023-01-02T15:12:38.066Z,44.00
2023-01-02T15:15:14.492Z,49.58
2023-01-02T15:17:50.103Z,44.22
2023-01-02T15:20:23.999Z,58.35
2023-01-02T15:22:56.833Z,71.53
2023-01-02T15:25:39.791Z,67.50
2023-01-02T15:28:26.714Z,37.78
2023-01-02T15:31:05.955Z,30.55
2023-01-02T15:33:40.073Z,35.13
2023-01-02T15:36:12.844Z,34.28
2023-01-02T15:38:44.585Z,45.05
2023-01-02T15:41:20.239Z,35.58
2023-01-02T15:44:04.668Z,41.50
2023-01-02T15:46:35.666Z,55.78
2023-01-02T15:49:09.785Z,45.22
2023-01-02T15:51:42.224Z,47.13
2023-01-02T15:54:16.559Z,43.67
2023-01-02T15:56:49.629Z,47.13
2023-01-02T15:59:29.917Z,49.58
2023-01-02T16:02:02.792Z,36.60
2023-01-02T16:04:37.675Z,42.95
2023-01-02T16:07:19.352Z,46.65
2023-01-02T16:09:57.198Z,62.95
2023-01-02T16:12:28.155Z,59.88
2023-01-02T16:15:01.924Z,47.58
2023-01-02T16:17:36.533Z,40.42
2023-01-02T16:20:20.155Z,43.80
2023-01-02T16:22:55.371Z,39.15
2023-01-02T16:25:28.090Z,30.92
2023-01-02T16:28:03.342Z,29.90
2023-01-02T16:30:41.209Z,37.72
2023-01-02T16:33:24.801Z,40.03
2023-01-02T16:36:01.357Z,30.17
2023-01-02T16:38:33.820Z,27.67
2023-01-02T16:41:12.019Z,29.88
2023-01-02T16:43:49.418Z,33.67
2023-01-02T16:46:20.710Z,34.78
2023-01-02T16:48:51.670Z,38.05
2023-01-02T16:51:25.437Z,34.00
2023-01-02T16:53:56.836Z,31.60
2023-01-02T16:56:27.997Z,30.48
2023-01-02T16:58:58.922Z,31.85
2023-01-02T17:01:30.516Z,28.90
2023-01-02T17:04:04.517Z,31.70
2023-01-02T17:06:39.016Z,27.30
2023-01-02T17:09:09.874Z,28.25
2023-01-02T17:12:00.361Z,30.13
2023-01-02T17:14:33.174Z,27.33
2023-01-02T17:17:04.684Z,31.48
2023-01-02T17:19:35.771Z,35.75
2023-01-02T17:22:10.111Z,34.60
2023-01-02T17:24:41.747Z,35.60
2023-01-02T17:27:13.178Z,43.55
2023-01-02T17:29:44.697Z,44.60
2023-01-02T17:32:16.904Z,42.35
2023-01-02T17:34:48.665Z,48.00
2023-01-02T17:37:24.722Z,43.67
2023-01-02T17:39:57.076Z,41.15
2023-01-02T17:42:29.899Z,35.78
2023-01-02T17:45:00.999Z,39.55
2023-01-02T17:48:00.745Z,34.75
2023-01-02T17:50:24.769Z,34.83
2023-01-02T17:53:00.083Z,36.10
2023-01-02T17:55:30.806Z,46.58
2023-01-02T17:58:03.355Z,59.47
2023-01-02T18:00:34.346Z,48.25
2023-01-02T18:03:07.068Z,35.30
2023-01-02T18:05:38.753Z,35.45
2023-01-02T18:08:12.485Z,33.35
2023-01-02T18:10:43.194Z,29.42
2023-01-02T18:13:15.028Z,30.55
2023-01-02T18:15:46.001Z,31.80
2023-01-02T18:18:19.785Z,37.85
2023-01-02T18:20:50.675Z,35.05
2023-01-02T18:23:24.576Z,32.83
2023-01-02T18:25:55.522Z,35.08
2023-01-02T18:28:28.613Z,31.70
2023-01-02T18:31:02.502Z,28.55
2023-01-02T18:33:36.532Z,28.98
2023-01-02T18:36:19.463Z,28.50
2023-01-02T18:38:56.586Z,30.77
2023-01-02T18:41:29.001Z,34.50
2023-01-02T18:44:05.598Z,39.30
2023-01-02T18:47:04.307Z,53.22
2023-01-02T18:49:32.191Z,45.13
2023-01-02T18:52:15.165Z,53.20
2023-01-02T18:54:53.420Z,61.20
2023-01-02T18:57:26.313Z,60.47
2023-01-02T18:59:58.571Z,53.80
2023-01-02T19:02:32.743Z,65.88
2023-01-02T19:05:04.206Z,53.50
2023-01-02T19:10:34.479Z,50.65
2023-01-02T19:13:08.305Z,57.03
2023-01-02T19:15:43.929Z,52.45
2023-01-02T19:18:28.767Z,43.65
2023-01-02T19:21:04.688Z,38.20
2023-01-02T19:23:40.318Z,39.13
2023-01-02T19:26:22.560Z,32.58
2023-01-02T19:28:58.634Z,37.38
2023-01-02T19:31:37.069Z,38.05
2023-01-02T19:34:31.054Z,36.67
2023-01-02T19:37:17.646Z,30.65
2023-01-02T19:39:51.875Z,29.98
2023-01-02T19:42:28.449Z,33.30
2023-01-02T19:45:00.951Z,28.17
2023-01-02T19:47:34.626Z,29.25
2023-01-02T19:50:06.890Z,26.80
2023-01-02T19:52:38.257Z,30.13
2023-01-02T19:55:11.918Z,28.88
2023-01-02T19:57:46.503Z,32.53
2023-01-02T20:00:20.465Z,33.80
2023-01-02T20:02:53.042Z,32.35
2023-01-02T20:05:28.949Z,31.95
2023-01-02T20:08:02.493Z,29.02
2023-01-02T20:10:33.349Z,25.92
2023-01-02T20:13:07.012Z,30.92
2023-01-02T20:15:38.350Z,34.38
2023-01-02T20:18:10.197Z,29.38
2023-01-02T20:20:41.093Z,34.55
2023-01-02T20:23:12.215Z,28.83
2023-01-02T20:25:43.000Z,33.22
2023-01-02T20:28:17.362Z,35.25
2023-01-02T20:30:49.084Z,37.40
2023-01-02T20:33:20.513Z,29.77
2023-01-02T20:35:51.326Z,34.08
2023-01-02T20:38:22.615Z,32.28
2023-01-02T20:40:53.496Z,32.00
2023-01-02T20:43:27.367Z,36.20
2023-01-02T20:45:58.215Z,29.17
2023-01-02T20:48:29.745Z,25.02
2023-01-02T20:51:00.514Z,28.27
2023-01-02T20:53:31.605Z,34.03
2023-01-02T20:56:02.382Z,30.13
2023-01-02T20:58:36.233Z,30.80
2023-01-02T21:01:07.025Z,35.95
2023-01-02T21:03:39.568Z,34.55
2023-01-02T21:06:10.591Z,31.38
2023-01-02T21:08:41.739Z,32.97
2023-01-02T21:11:13.330Z,32.92
2023-01-02T21:13:47.775Z,32.42
2023-01-02T21:16:18.604Z,38.90
2023-01-02T21:18:49.999Z,36.03
2023-01-02T21:21:23.753Z,33.92
2023-01-02T21:23:56.049Z,33.13
2023-01-02T21:26:27.019Z,33.63
2023-01-02T21:29:00.730Z,37.38
2023-01-02T21:31:31.840Z,34.47
2023-01-02T21:34:03.082Z,37.10
2023-01-02T21:36:36.517Z,33.20
2023-01-02T21:39:07.915Z,33.08
2023-01-02T21:41:50.981Z,37.72
2023-01-02T21:44:24.671Z,35.47
2023-01-02T21:46:55.431Z,38.30
2023-01-02T21:49:27.395Z,37.72
2023-01-02T21:51:59.567Z,37.92
2023-01-02T21:54:31.403Z,35.50
2023-01-02T21:57:02.939Z,33.88
2023-01-02T21:59:37.144Z,32.50
2023-01-02T22:02:08.724Z,34.45
2023-01-02T22:04:40.197Z,39.70
2023-01-02T22:07:31.310Z,33.25
2023-01-02T22:10:03.063Z,35.25
2023-01-02T22:12:34.163Z,33.55
2023-01-02T22:15:10.562Z,30.98
2023-01-02T22:17:41.554Z,37.80
2023-01-02T22:20:14.127Z,37.58
2023-01-02T22:22:45.652Z,39.50
2023-01-02T22:25:17.132Z,38.42
2023-01-02T22:27:48.602Z,31.63
2023-01-02T22:30:27.815Z,35.85
2023-01-02T22:33:04.871Z,29.90
2023-01-02T22:35:37.611Z,35.28
2023-01-02T22:38:08.667Z,36.17
2023-01-02T22:40:40.416Z,33.47
2023-01-02T22:43:20.861Z,35.13
2023-01-02T22:46:09.742Z,37.97
2023-01-02T22:48:43.490Z,35.42
2023-01-02T22:51:18.442Z,35.03
2023-01-02T22:53:51.710Z,31.90
2023-01-02T22:56:24.537Z,32.92
2023-01-02T22:58:55.448Z,37.50
2023-01-02T23:01:33.649Z,28.77
2023-01-02T23:04:05.341Z,31.80
2023-01-02T23:06:51.427Z,37.22
2023-01-02T23:09:27.969Z,30.48
2023-01-02T23:11:59.523Z,29.92
2023-01-02T23:14:30.327Z,31.67
2023-01-02T23:17:25.093Z,35.33
2023-01-02T23:19:56.237Z,29.05
2023-01-02T23:22:28.075Z,27.13
2023-01-02T23:25:00.999Z,29.92
2023-01-02T23:27:32.482Z,30.05
2023-01-02T23:30:03.217Z,28.52
2023-01-02T23:32:37.417Z,28.08
2023-01-02T23:35:10.410Z,30.85
2023-01-02T23:37:42.012Z,30.55
2023-01-02T23:40:15.247Z,31.27
2023-01-02T23:42:46.356Z,29.50
2023-01-02T23:45:17.548Z,29.88
2023-01-02T23:47:51.222Z,29.10
2023-01-02T23:50:22.195Z,27.80
2023-01-02T23:52:53.870Z,34.53
2023-01-02T23:55:25.307Z,32.67
2023-01-02T23:57:56.948Z,25.70
